Portada
METAR-TAF:

METAR-TAF

Aeroports :

Crystal Airport

Minneapolis-Crystal, Minnesota, Estats Units d'Amèrica

latitud: 45-03-45N, longitud: 093-21-03W, altitud: 264 m

Observació

L'informe es va fer fa 1 hora i 2 minuts, a les 17:53 UTC
Vent 11 kt del Sud-Est amb ràfegues de 20 kt
Temperatura 21°C
Humitat 83%
Pressió 1007 hPa
Visibilitat: 16.1 km
Cel ennuvolat a una alçada de 1700 ft
Cel cobert a una alçada de 2300 ft
pluja

METAR: KMIC 191753Z 13011G20KT 10SM -RA BKN017 OVC023 21/18 A2975 RMK AO2 RAE28B45 SLP071 P0003 60006 T02110183 10233 20206 58015

Hora: 13:55 (18:55 UTC)


TAF: manca

Observacions i pronòstics meteorològics de més de 4000 aeroports (METAR i TAF).

Les estacions disponibles són els punts grocs i vermells al mapa.

Posi el ratolí al punt desitjat per veure el nom de l'estació.

Feu clic per veure les observacions i els pronòstics meteorològics.

Per canviar el mapa: feu clic els botons verds amb una creu de color negre per apropar; al botó verd amb un guió per allunyar la imatge; o en les fletxes verdes per a mapes adjacents.


METAR-TAF: